createdAt,value
2018-05-12T00:00:08.406Z,95.17
2018-05-12T00:02:37.758Z,95.43
2018-05-12T00:05:07.435Z,95.58
2018-05-12T00:07:37.073Z,95.91
2018-05-12T00:10:06.738Z,96.05
2018-05-12T00:12:36.100Z,95.68
2018-05-12T00:15:05.774Z,95.55
2018-05-12T00:17:35.632Z,95.47
2018-05-12T00:20:04.702Z,95.47
2018-05-12T00:22:34.069Z,95.29
2018-05-12T00:25:03.712Z,95.12
2018-05-12T00:27:33.351Z,94.83
2018-05-12T00:30:03.027Z,94.14
2018-05-12T00:32:32.669Z,93.45
2018-05-12T00:35:02.309Z,92.58
2018-05-12T00:37:32.013Z,92.68
2018-05-12T00:40:01.689Z,92.40
2018-05-12T00:42:32.305Z,92.45
2018-05-12T00:45:01.991Z,93.07
2018-05-12T00:47:31.484Z,93.79
2018-05-12T00:50:01.146Z,93.72
2018-05-12T00:52:30.781Z,94.02
2018-05-12T00:55:00.488Z,94.55
2018-05-12T00:57:30.368Z,95.15
2018-05-12T01:00:00.023Z,95.45
2018-05-12T01:02:29.668Z,95.58
2018-05-12T01:04:59.304Z,95.85
2018-05-12T01:07:28.995Z,95.90
2018-05-12T01:09:58.639Z,95.76
2018-05-12T01:12:28.291Z,94.88
2018-05-12T01:14:57.928Z,93.98
2018-05-12T01:17:27.579Z,93.34
2018-05-12T01:19:56.974Z,93.44
2018-05-12T01:22:26.620Z,93.52
2018-05-12T01:24:56.268Z,93.78
2018-05-12T01:27:25.899Z,94.22
2018-05-12T01:29:55.540Z,94.48
2018-05-12T01:32:25.232Z,94.53
2018-05-12T01:34:54.880Z,94.46
2018-05-12T01:37:24.558Z,94.46
2018-05-12T01:39:54.182Z,94.73
2018-05-12T01:42:23.531Z,94.27
2018-05-12T01:44:53.173Z,93.44
2018-05-12T01:47:22.812Z,93.61
2018-05-12T01:49:52.466Z,93.97
2018-05-12T01:52:22.118Z,94.43
2018-05-12T01:54:51.750Z,94.66
2018-05-12T01:57:21.419Z,94.93
2018-05-12T01:59:51.066Z,94.64
2018-05-12T02:02:20.705Z,94.49
2018-05-12T02:04:50.180Z,94.59
2018-05-12T02:07:19.810Z,95.00
2018-05-12T02:09:49.483Z,94.89
2018-05-12T02:12:19.134Z,94.96
2018-05-12T02:14:48.776Z,94.81
2018-05-12T02:17:18.423Z,94.46
2018-05-12T02:19:48.060Z,94.08
2018-05-12T02:22:17.745Z,94.11
2018-05-12T02:24:47.382Z,94.29
2018-05-12T02:27:17.007Z,94.30
2018-05-12T02:29:46.648Z,94.86
2018-05-12T02:32:16.304Z,95.24
2018-05-12T02:34:46.009Z,95.59
2018-05-12T02:37:15.648Z,95.19
2018-05-12T02:39:45.331Z,94.93
2018-05-12T02:42:14.691Z,94.36
2018-05-12T02:44:44.330Z,94.54
2018-05-12T02:47:13.741Z,95.03
2018-05-12T02:49:43.393Z,94.72
2018-05-12T02:52:13.023Z,94.46
2018-05-12T02:54:42.668Z,94.81
2018-05-12T02:57:11.970Z,94.88
2018-05-12T02:59:41.643Z,95.60
2018-05-12T03:02:11.278Z,96.15
2018-05-12T03:04:40.920Z,96.25
2018-05-12T03:07:10.276Z,96.35
2018-05-12T03:09:39.910Z,96.50
2018-05-12T03:12:09.251Z,96.75
2018-05-12T03:14:38.884Z,97.06
2018-05-12T03:17:08.532Z,96.95
2018-05-12T03:19:38.164Z,96.46
2018-05-12T03:22:07.798Z,96.30
2018-05-12T03:24:37.199Z,96.46
2018-05-12T03:27:06.855Z,96.71
2018-05-12T03:29:36.482Z,96.68
2018-05-12T03:32:06.110Z,96.26
2018-05-12T03:34:35.768Z,95.38
2018-05-12T03:37:05.442Z,95.65
2018-05-12T03:39:35.077Z,96.01
2018-05-12T03:42:04.756Z,95.59
2018-05-12T03:44:34.396Z,95.73
2018-05-12T03:47:04.069Z,95.46
2018-05-12T03:49:33.527Z,95.05
2018-05-12T03:52:02.956Z,94.20
2018-05-12T03:54:32.608Z,94.02
2018-05-12T03:57:02.239Z,94.11
2018-05-12T03:59:31.895Z,94.26
2018-05-12T04:02:01.568Z,94.19
2018-05-12T04:04:42.352Z,94.48
2018-05-12T04:07:22.974Z,93.94
2018-05-12T04:10:05.240Z,93.66
2018-05-12T04:12:34.676Z,93.08
2018-05-12T04:15:04.086Z,92.09
2018-05-12T04:17:33.492Z,91.87
2018-05-12T04:20:03.208Z,91.95
2018-05-12T04:22:32.834Z,91.50
2018-05-12T04:25:02.517Z,91.05
2018-05-12T04:27:32.453Z,90.60
2018-05-12T04:30:02.107Z,90.66
2018-05-12T04:32:31.744Z,90.29
2018-05-12T04:35:01.404Z,90.34
2018-05-12T04:37:30.754Z,90.75
2018-05-12T04:40:00.396Z,90.81
2018-05-12T04:42:30.081Z,90.40
2018-05-12T04:44:59.715Z,90.38
2018-05-12T04:47:29.344Z,89.49
2018-05-12T04:49:58.998Z,89.50
2018-05-12T04:52:28.648Z,89.55
2018-05-12T04:54:58.341Z,89.36
2018-05-12T04:57:27.980Z,88.09
2018-05-12T04:59:57.614Z,88.10
2018-05-12T05:02:27.260Z,87.27
2018-05-12T05:04:56.903Z,86.77
2018-05-12T05:07:26.573Z,85.17
2018-05-12T05:09:56.216Z,84.84
2018-05-12T05:12:25.884Z,83.75
2018-05-12T05:14:55.510Z,81.98
2018-05-12T05:17:25.159Z,81.02
2018-05-12T05:19:54.837Z,81.32
2018-05-12T05:22:24.469Z,81.81
2018-05-12T05:24:54.097Z,82.41
2018-05-12T05:27:23.740Z,82.31
2018-05-12T05:29:53.378Z,82.30
2018-05-12T05:32:23.063Z,82.68
2018-05-12T05:34:52.695Z,82.33
2018-05-12T05:37:22.328Z,81.69
2018-05-12T05:39:51.967Z,81.04
2018-05-12T05:42:21.609Z,80.03
2018-05-12T05:44:51.284Z,78.65
2018-05-12T05:47:20.963Z,77.97
2018-05-12T05:49:50.821Z,77.01
2018-05-12T05:52:20.465Z,75.62
2018-05-12T05:54:50.114Z,75.02
2018-05-12T05:57:19.793Z,73.37
2018-05-12T05:59:49.431Z,71.28
2018-05-12T06:02:19.146Z,70.46
2018-05-12T06:04:48.793Z,69.94
2018-05-12T06:07:18.426Z,69.58
2018-05-12T06:09:48.100Z,68.79
2018-05-12T06:12:17.741Z,66.77
2018-05-12T06:14:47.380Z,65.63
2018-05-12T06:17:17.016Z,64.75
2018-05-12T06:19:46.660Z,63.46
2018-05-12T06:22:16.335Z,62.57
2018-05-12T06:24:45.964Z,62.48
2018-05-12T06:27:15.619Z,62.35
2018-05-12T06:29:45.258Z,62.34
2018-05-12T06:32:14.887Z,62.04
2018-05-12T06:34:44.580Z,62.94
2018-05-12T06:37:14.221Z,63.26
2018-05-12T06:39:43.876Z,62.67
2018-05-12T06:42:13.520Z,61.94
2018-05-12T06:44:43.160Z,61.66
2018-05-12T06:47:12.840Z,60.14
2018-05-12T06:49:42.489Z,58.51
2018-05-12T06:52:12.909Z,57.94
2018-05-12T06:54:42.548Z,56.00
2018-05-12T06:57:12.194Z,55.85
2018-05-12T06:59:41.889Z,55.18
2018-05-12T07:02:11.531Z,54.87
2018-05-12T07:04:41.159Z,54.93
2018-05-12T07:07:10.797Z,52.68
2018-05-12T07:09:41.027Z,50.42
2018-05-12T07:12:11.335Z,47.17
2018-05-12T07:14:41.581Z,44.33
2018-05-12T07:17:11.848Z,41.46
2018-05-12T07:19:42.089Z,39.31
2018-05-12T07:22:12.312Z,38.55
2018-05-12T07:24:42.587Z,36.55
2018-05-12T07:27:12.824Z,36.29
2018-05-12T07:29:43.223Z,36.98
2018-05-12T07:32:13.604Z,38.51
2018-05-12T07:34:43.876Z,39.26
2018-05-12T07:37:14.108Z,38.98
2018-05-12T07:39:44.336Z,37.07
2018-05-12T07:42:14.600Z,35.74
2018-05-12T07:44:44.840Z,34.11
2018-05-12T07:47:15.256Z,33.87
2018-05-12T07:49:45.778Z,32.39
2018-05-12T07:52:17.027Z,31.04
2018-05-12T07:54:47.233Z,30.21
2018-05-12T07:57:17.728Z,28.59
2018-05-12T07:59:47.953Z,27.97
2018-05-12T08:02:18.231Z,28.37
2018-05-12T08:04:48.480Z,29.22
2018-05-12T08:07:18.730Z,28.67
2018-05-12T08:09:48.956Z,27.54
2018-05-12T08:12:19.178Z,27.57
2018-05-12T08:14:49.443Z,28.59
2018-05-12T08:17:19.668Z,30.39
2018-05-12T08:19:49.919Z,29.93
2018-05-12T08:22:20.130Z,28.80
2018-05-12T08:24:50.363Z,26.15
2018-05-12T08:27:20.626Z,26.13
2018-05-12T08:29:50.874Z,28.26
2018-05-12T08:32:21.154Z,29.73
2018-05-12T08:34:51.404Z,30.92
2018-05-12T08:37:21.651Z,32.69
2018-05-12T08:39:51.877Z,34.32
2018-05-12T08:42:22.142Z,34.66
2018-05-12T08:44:52.381Z,33.76
2018-05-12T08:47:22.616Z,31.77
2018-05-12T08:49:52.902Z,29.72
2018-05-12T08:52:23.119Z,29.74
2018-05-12T08:54:53.396Z,30.60
2018-05-12T08:57:23.629Z,31.51
2018-05-12T08:59:53.889Z,32.04
2018-05-12T09:02:24.118Z,31.57
2018-05-12T09:04:54.352Z,30.78
2018-05-12T09:07:25.458Z,30.64
2018-05-12T09:09:55.687Z,30.99
2018-05-12T09:12:25.974Z,32.61
2018-05-12T09:14:56.499Z,33.91
2018-05-12T09:17:26.810Z,35.02
2018-05-12T09:19:57.043Z,34.93
2018-05-12T09:22:27.310Z,36.56
2018-05-12T09:24:57.564Z,36.12
2018-05-12T09:27:27.542Z,36.20
2018-05-12T09:29:57.449Z,35.84
2018-05-12T09:32:27.822Z,36.36
2018-05-12T09:34:58.123Z,36.92
2018-05-12T09:37:28.359Z,36.18
2018-05-12T09:39:58.606Z,36.65
2018-05-12T09:42:28.859Z,37.22
2018-05-12T09:44:59.278Z,37.85
2018-05-12T09:47:29.539Z,38.92
2018-05-12T09:49:59.759Z,39.96
2018-05-12T09:52:30.017Z,40.60
2018-05-12T09:55:00.258Z,41.00
2018-05-12T09:57:30.504Z,41.44
2018-05-12T10:00:00.930Z,41.37
2018-05-12T10:02:31.560Z,42.74
2018-05-12T10:05:01.847Z,42.34
2018-05-12T10:07:31.872Z,42.28
2018-05-12T10:10:02.218Z,42.20
2018-05-12T10:12:32.516Z,41.80
2018-05-12T10:15:02.780Z,41.59
2018-05-12T10:17:33.007Z,41.89
2018-05-12T10:20:03.235Z,42.01
2018-05-12T10:22:33.607Z,43.02
2018-05-12T10:25:03.616Z,43.09
2018-05-12T10:27:33.863Z,44.57
2018-05-12T10:30:03.863Z,42.84
2018-05-12T10:32:34.107Z,42.58
2018-05-12T10:35:04.067Z,42.08
2018-05-12T10:37:34.340Z,41.81
2018-05-12T10:40:05.208Z,41.33
2018-05-12T10:42:35.481Z,41.27
2018-05-12T10:45:05.798Z,41.24
2018-05-12T10:47:36.039Z,41.81
2018-05-12T10:50:06.355Z,43.31
2018-05-12T10:52:36.636Z,43.11
2018-05-12T10:55:06.891Z,42.99
2018-05-12T10:57:36.803Z,42.29
2018-05-12T11:00:07.073Z,42.77
2018-05-12T11:02:37.303Z,42.67
2018-05-12T11:05:07.792Z,43.17
2018-05-12T11:07:38.013Z,43.72
2018-05-12T11:10:08.278Z,44.12
2018-05-12T11:12:38.503Z,44.82
2018-05-12T11:15:08.838Z,45.01
2018-05-12T11:17:39.088Z,47.24
2018-05-12T11:20:09.363Z,47.51
2018-05-12T11:22:39.841Z,46.52
2018-05-12T11:25:10.116Z,45.62
2018-05-12T11:27:40.496Z,44.84
2018-05-12T11:30:10.736Z,45.89
2018-05-12T11:32:41.016Z,45.54
2018-05-12T11:35:11.276Z,46.19
2018-05-12T11:37:42.486Z,45.40
2018-05-12T11:40:12.726Z,45.03
2018-05-12T11:42:43.013Z,45.05
2018-05-12T11:45:13.233Z,45.15
2018-05-12T11:47:43.482Z,44.85
2018-05-12T11:50:13.713Z,43.80
2018-05-12T11:52:44.151Z,44.68
2018-05-12T11:55:14.423Z,45.23
2018-05-12T11:57:44.664Z,44.80
2018-05-12T12:00:14.977Z,44.49
2018-05-12T12:02:45.208Z,44.86
2018-05-12T12:05:15.427Z,44.83
2018-05-12T12:07:45.763Z,43.87
2018-05-12T12:10:16.041Z,43.26
2018-05-12T12:12:46.329Z,42.98
2018-05-12T12:15:16.564Z,43.49
2018-05-12T12:17:46.560Z,43.91
2018-05-12T12:20:16.281Z,42.67
2018-05-12T12:22:46.521Z,41.76
2018-05-12T12:25:16.802Z,42.31
2018-05-12T12:27:47.037Z,42.65
2018-05-12T12:30:17.379Z,40.79
2018-05-12T12:32:47.754Z,41.57
2018-05-12T12:35:18.081Z,41.11
2018-05-12T12:37:48.299Z,40.10
2018-05-12T12:40:18.534Z,40.26
2018-05-12T12:42:48.752Z,39.69
2018-05-12T12:45:18.962Z,39.29
2018-05-12T12:47:49.240Z,40.05
2018-05-12T12:50:19.456Z,39.93
2018-05-12T12:52:49.681Z,40.53
2018-05-12T12:55:19.905Z,42.10
2018-05-12T12:57:50.110Z,52.32
2018-05-12T13:00:19.791Z,70.28
2018-05-12T13:02:49.436Z,83.85
2018-05-12T13:05:19.065Z,91.15
2018-05-12T13:07:48.694Z,95.27
2018-05-12T13:10:19.081Z,97.30
2018-05-12T13:12:48.734Z,98.27
2018-05-12T13:15:18.632Z,98.82
2018-05-12T13:17:48.274Z,98.71
2018-05-12T13:20:17.904Z,99.32
2018-05-12T13:22:48.468Z,100.00
2018-05-12T13:25:18.142Z,100.00
2018-05-12T13:27:47.834Z,100.00
2018-05-12T13:30:17.640Z,100.00
2018-05-12T13:32:47.273Z,100.00
2018-05-12T13:35:16.904Z,100.00
2018-05-12T13:37:46.587Z,100.00
2018-05-12T13:40:16.712Z,100.00
2018-05-12T13:42:46.612Z,100.00
2018-05-12T13:45:16.240Z,100.00
2018-05-12T13:47:45.924Z,100.00
2018-05-12T13:50:15.606Z,100.00
2018-05-12T13:52:45.241Z,100.00
2018-05-12T13:55:14.563Z,100.00
2018-05-12T13:57:44.179Z,100.00
2018-05-12T14:00:13.805Z,100.00
2018-05-12T14:02:43.451Z,100.00
2018-05-12T14:05:13.083Z,100.00
2018-05-12T14:07:42.730Z,100.00
2018-05-12T14:10:12.509Z,100.00
2018-05-12T14:12:42.235Z,100.00
2018-05-12T14:15:11.919Z,100.00
2018-05-12T14:17:41.548Z,100.00
2018-05-12T14:20:11.192Z,100.00
2018-05-12T14:22:40.827Z,100.00
2018-05-12T14:25:10.464Z,100.00
2018-05-12T14:27:39.812Z,100.00
2018-05-12T14:30:11.080Z,100.00
2018-05-12T14:32:40.518Z,100.00
2018-05-12T14:35:10.163Z,100.00
2018-05-12T14:37:39.806Z,100.00
2018-05-12T14:40:09.468Z,100.00
2018-05-12T14:42:39.116Z,100.00
2018-05-12T14:45:09.011Z,100.00
2018-05-12T14:47:38.659Z,100.00
2018-05-12T14:50:08.285Z,100.00
2018-05-12T14:52:38.292Z,100.00
2018-05-12T14:55:07.921Z,100.00
2018-05-12T14:57:37.596Z,100.00
2018-05-12T15:00:07.229Z,100.00
2018-05-12T15:02:36.898Z,100.00
2018-05-12T15:05:06.200Z,100.00
2018-05-12T15:07:35.845Z,100.00
2018-05-12T15:10:05.249Z,100.00
2018-05-12T15:12:34.878Z,100.00
2018-05-12T15:15:04.168Z,100.00
2018-05-12T15:17:33.815Z,100.00
2018-05-12T15:20:03.451Z,100.00
2018-05-12T15:22:33.122Z,100.00
2018-05-12T15:25:04.625Z,100.00
2018-05-12T15:27:34.294Z,100.00
2018-05-12T15:30:03.686Z,100.00
2018-05-12T15:32:33.342Z,100.00
2018-05-12T15:35:02.968Z,100.00
2018-05-12T15:37:32.586Z,100.00
2018-05-12T15:40:02.288Z,100.00
2018-05-12T15:42:31.907Z,100.00
2018-05-12T15:45:01.545Z,100.00
2018-05-12T15:47:31.208Z,100.00
2018-05-12T15:50:00.956Z,100.00
2018-05-12T15:52:30.798Z,100.00
2018-05-12T15:55:00.431Z,100.00
2018-05-12T15:57:30.082Z,100.00
2018-05-12T15:59:59.717Z,100.00
2018-05-12T16:02:29.365Z,100.00
2018-05-12T16:04:59.050Z,100.00
2018-05-12T16:07:28.701Z,100.00
2018-05-12T16:09:58.346Z,100.00
2018-05-12T16:12:27.993Z,100.00
2018-05-12T16:14:57.634Z,100.00
2018-05-12T16:17:27.311Z,100.00
2018-05-12T16:19:56.943Z,100.00
2018-05-12T16:22:26.590Z,100.00
2018-05-12T16:24:56.210Z,100.00
2018-05-12T16:27:25.837Z,100.00
2018-05-12T16:29:55.516Z,100.00
2018-05-12T16:32:25.138Z,100.00
2018-05-12T16:34:54.779Z,100.00
2018-05-12T16:37:24.468Z,100.00
2018-05-12T16:39:54.259Z,100.00
2018-05-12T16:42:23.608Z,100.00
2018-05-12T16:44:53.254Z,99.83
2018-05-12T16:47:22.880Z,100.00
2018-05-12T16:49:52.503Z,100.00
2018-05-12T16:52:22.162Z,100.00
2018-05-12T16:54:51.836Z,100.00
2018-05-12T16:57:21.955Z,100.00
2018-05-12T16:59:51.636Z,100.00
2018-05-12T17:02:21.298Z,100.00
2018-05-12T17:04:50.936Z,100.00
2018-05-12T17:07:20.616Z,100.00
2018-05-12T17:09:50.256Z,100.00
2018-05-12T17:12:19.898Z,100.00
2018-05-12T17:14:49.761Z,100.00
2018-05-12T17:17:19.412Z,100.00
2018-05-12T17:19:49.090Z,100.00
2018-05-12T17:22:18.723Z,100.00
2018-05-12T17:24:48.392Z,100.00
2018-05-12T17:27:18.028Z,100.00
2018-05-12T17:29:47.753Z,100.00
2018-05-12T17:32:17.579Z,100.00
2018-05-12T17:34:47.240Z,100.00
2018-05-12T17:37:16.875Z,100.00
2018-05-12T17:39:46.515Z,100.00
2018-05-12T17:42:16.195Z,100.00
2018-05-12T17:44:45.905Z,100.00
2018-05-12T17:47:15.556Z,100.00
2018-05-12T17:49:45.376Z,100.00
2018-05-12T17:52:15.015Z,100.00
2018-05-12T17:54:44.794Z,100.00
2018-05-12T17:57:14.479Z,100.00
2018-05-12T17:59:44.121Z,100.00
2018-05-12T18:02:13.558Z,100.00
2018-05-12T18:04:43.195Z,100.00
2018-05-12T18:07:12.887Z,100.00
2018-05-12T18:09:42.324Z,100.00
2018-05-12T18:12:11.697Z,100.00
2018-05-12T18:14:41.021Z,100.00
2018-05-12T18:17:10.411Z,100.00
2018-05-12T18:19:39.787Z,100.00
2018-05-12T18:22:09.193Z,100.00
2018-05-12T18:24:38.327Z,100.00
2018-05-12T18:27:07.692Z,100.00
2018-05-12T18:29:37.060Z,100.00
2018-05-12T18:32:06.431Z,100.00
2018-05-12T18:34:36.124Z,100.00
2018-05-12T18:37:05.754Z,100.00
2018-05-12T18:39:40.213Z,100.00
2018-05-12T18:42:09.647Z,100.00
2018-05-12T18:44:39.024Z,100.00
2018-05-12T18:47:08.384Z,100.00
2018-05-12T18:49:37.735Z,100.00
2018-05-12T18:52:07.151Z,100.00
2018-05-12T18:54:36.531Z,100.00
2018-05-12T18:57:05.888Z,100.00
2018-05-12T18:59:35.562Z,100.00
2018-05-12T19:02:04.939Z,100.00
2018-05-12T19:04:34.356Z,100.00
2018-05-12T19:07:03.678Z,100.00
2018-05-12T19:09:33.037Z,100.00
2018-05-12T19:12:02.758Z,100.00
2018-05-12T19:14:32.262Z,100.00
2018-05-12T19:17:01.730Z,100.00
2018-05-12T19:19:31.246Z,100.00
2018-05-12T19:22:00.612Z,100.00
2018-05-12T19:24:29.982Z,100.00
2018-05-12T19:26:59.408Z,100.00
2018-05-12T19:29:28.822Z,100.00
2018-05-12T19:31:58.254Z,100.00
2018-05-12T19:34:27.622Z,100.00
2018-05-12T19:36:57.000Z,100.00
2018-05-12T19:39:26.355Z,100.00
2018-05-12T19:41:55.772Z,100.00
2018-05-12T19:44:25.135Z,100.00
2018-05-12T19:46:54.783Z,100.00
2018-05-12T19:49:24.152Z,100.00
2018-05-12T19:51:54.484Z,100.00
2018-05-12T19:54:23.903Z,100.00
2018-05-12T19:56:53.291Z,100.00
2018-05-12T19:59:22.673Z,100.00
2018-05-12T20:01:52.041Z,100.00
2018-05-12T20:04:21.398Z,100.00
2018-05-12T20:06:50.818Z,100.00
2018-05-12T20:09:20.296Z,100.00
2018-05-12T20:11:49.658Z,100.00
2018-05-12T20:14:18.457Z,100.00
2018-05-12T20:16:47.819Z,100.00
2018-05-12T20:19:17.227Z,100.00
2018-05-12T20:21:46.604Z,100.00
2018-05-12T20:24:15.986Z,100.00
2018-05-12T20:26:45.349Z,100.00
2018-05-12T20:29:14.734Z,100.00
2018-05-12T20:31:44.147Z,100.00
2018-05-12T20:34:13.502Z,100.00
2018-05-12T20:36:42.855Z,100.00
2018-05-12T20:39:12.227Z,100.00
2018-05-12T20:41:41.587Z,100.00
2018-05-12T20:44:10.988Z,100.00
2018-05-12T20:46:40.381Z,100.00
2018-05-12T20:49:09.741Z,100.00
2018-05-12T20:51:39.379Z,100.00
2018-05-12T20:54:08.752Z,100.00
2018-05-12T20:56:38.151Z,100.00
2018-05-12T20:59:07.532Z,100.00
2018-05-12T21:01:36.890Z,100.00
2018-05-12T21:04:06.525Z,100.00
2018-05-12T21:06:35.887Z,100.00
2018-05-12T21:09:04.728Z,100.00
2018-05-12T21:11:34.459Z,100.00
2018-05-12T21:14:03.820Z,100.00
2018-05-12T21:16:33.183Z,100.00
2018-05-12T21:19:02.548Z,100.00
2018-05-12T21:21:32.230Z,100.00
2018-05-12T21:24:01.687Z,100.00
2018-05-12T21:26:31.187Z,100.00
2018-05-12T21:29:00.550Z,100.00
2018-05-12T21:31:29.902Z,100.00
2018-05-12T21:33:59.323Z,100.00
2018-05-12T21:36:28.955Z,100.00
2018-05-12T21:38:58.135Z,100.00
2018-05-12T21:41:27.796Z,99.94
2018-05-12T21:43:57.154Z,99.29
2018-05-12T21:46:26.596Z,99.01
2018-05-12T21:48:55.620Z,98.99
2018-05-12T21:51:24.972Z,99.06
2018-05-12T21:53:54.346Z,98.67
2018-05-12T21:56:23.688Z,98.44
2018-05-12T21:58:52.890Z,98.08
2018-05-12T22:01:22.504Z,97.92
2018-05-12T22:03:51.856Z,97.85
2018-05-12T22:06:21.483Z,97.51
2018-05-12T22:08:50.857Z,97.35
2018-05-12T22:11:20.251Z,96.84
2018-05-12T22:13:49.591Z,96.88
2018-05-12T22:16:18.946Z,96.56
2018-05-12T22:18:48.305Z,96.43
2018-05-12T22:21:17.925Z,96.22
2018-05-12T22:23:47.315Z,96.15
2018-05-12T22:26:16.438Z,95.67
2018-05-12T22:28:45.790Z,95.54
2018-05-12T22:31:15.127Z,95.61
2018-05-12T22:33:44.459Z,95.54
2018-05-12T22:36:13.852Z,95.24
2018-05-12T22:38:43.202Z,95.13
2018-05-12T22:41:12.545Z,95.17
2018-05-12T22:43:41.920Z,95.30
2018-05-12T22:46:11.258Z,94.65
2018-05-12T22:48:40.867Z,94.75
2018-05-12T22:51:10.216Z,94.69
2018-05-12T22:53:39.569Z,94.46
2018-05-12T22:56:08.927Z,94.08
2018-05-12T22:58:38.280Z,94.44
2018-05-12T23:01:07.655Z,94.44
2018-05-12T23:03:37.278Z,94.52
2018-05-12T23:06:06.906Z,94.42
2018-05-12T23:08:36.532Z,94.25
2018-05-12T23:11:06.150Z,93.72
2018-05-12T23:13:35.848Z,93.60
2018-05-12T23:16:05.476Z,93.82
2018-05-12T23:18:34.831Z,93.51
2018-05-12T23:21:04.587Z,93.22
2018-05-12T23:23:34.207Z,93.81
2018-05-12T23:26:03.867Z,93.43
2018-05-12T23:28:33.483Z,94.14
2018-05-12T23:31:03.223Z,93.61
2018-05-12T23:33:32.115Z,93.44
2018-05-12T23:36:01.734Z,93.61
2018-05-12T23:38:31.420Z,93.14
2018-05-12T23:41:01.047Z,92.94
2018-05-12T23:43:30.670Z,92.71
2018-05-12T23:46:00.292Z,92.47
2018-05-12T23:48:29.918Z,92.59
2018-05-12T23:50:59.593Z,92.85
2018-05-12T23:53:29.216Z,92.63
2018-05-12T23:55:58.868Z,92.42
2018-05-12T23:58:28.494Z,92.53
